North Webster, IN

2:51 PM EDT on June 23, 2017 (GMT -0400)
Lake Wawasee | | Change Station
Active Advisory: Flood Warning Active Notice: Public Information Statement

Elev 866 ft 41.40 °N, 85.67 °W | Updated 27 seconds ago

Overcast
Overcast
73.1 °F
Feels Like 71 °F
N
2.0
Wind Variable Wind from SW

Today
High -- | Low -- °F
--% Chance of Precip.
Yesterday
High -- | Low -- °F
Precip. -- in
Pressure 29.71 in
Visibility 10.0 miles
Clouds Scattered Clouds 2500 ft
Mostly Cloudy 3300 ft
Heat Index 71 °F
Dew Point 69 °F
Humidity 88%
Rainfall 1.28 in
Snow Depth Not available.
6:10 AM 9:20 PM
Waning Crescent, 0% visible
METAR KASW 231835Z AUTO 32004KT 10SM SCT025 BKN033 21/17 A2971 RMK AO2
Pressure 29.71 in
Visibility 10.0 miles
Clouds Scattered Clouds 2500 ft
Mostly Cloudy 3300 ft
Heat Index 71 °F
Dew Point 69 °F
Humidity 88%
Rainfall 1.28 in
Snow Depth Not available.
6:10 AM 9:20 PM
Waning Crescent, 0% visible
METAR KASW 231835Z AUTO 32004KT 10SM SCT025 BKN033 21/17 A2971 RMK AO2

Get Your Daily Forecast Email!

Thanks for signing up!

Be on the lookout for a verification email in your inbox.

You'll start receiving severe weather alerts in your inbox..

×

10-Day Weather Forecast

Almanac

Astronomy

Jun. 23, 2017 Rise Set
Actual Time
Civil Twilight
Nautical Twilight
Astronomical Twilight
Moon
Length of Visible Light
Length of Day
Tomorrow will be .
, % of the Moon is Illuminated

Today's Extremes

State Highs State Lows

Community

WunderPhotos

Category 6

Welcome to Category 6. This is the collective home for Weather Underground's featured writeups by Dr. Jeff Masters (right), Bob Henson (left), Chris Burt, and other regular contributors.

Nearby

Air Quality

  Air Quality AQ Index Pollutant
Not available.

Snow Depth

Station Depth Elevation

Earthquake Activity

City Distance Mag. Time & Date
Minimum magnitude displayed is 2.5.

Coastal Water Temperatures

Place Temperature

Stations

Nearby Weather Stations

Station Location Temp. Windchill Dew Point Humidity Wind Precip. Elev Updated Type
                   

Watches & Warnings

Flood Warning
Issued: 2:05 PM EDT Jun. 23, 2017 – National Weather Service

The National Weather Service in northern Indiana has issued a

* Flood Warning for
the Eel River at North Manchester
* until Sunday evening.
* At 1 PM Friday the stage was 9.5 feet and rising.
* Minor flooding is occurring and minor flooding is forecast.
* Flood stage is 9.0 feet.
* Forecast... the river will rise to crest near 10.9 feet around 8 PM
Friday June 23 and fall below flood stage around 7 PM Saturday
June 24.
* At 9.0 feet... the river is at flood stage... minor agricultural
flooding occurs.
* This crest compares to a previous crest of 9.1 feet which occurred
on Apr 12 2013.


Lat... Lon 4076 8635 4097 8592 4102 8577 4099 8577
      4087 8599 4072 8631